createdAt,value
2023-01-07T00:02:01.847Z,90.90
2023-01-07T00:04:33.714Z,91.01
2023-01-07T00:07:04.987Z,90.91
2023-01-07T00:09:36.059Z,90.79
2023-01-07T00:12:07.424Z,90.68
2023-01-07T00:14:38.398Z,90.75
2023-01-07T00:17:09.407Z,90.65
2023-01-07T00:19:38.816Z,90.62
2023-01-07T00:22:10.073Z,90.61
2023-01-07T00:24:39.957Z,90.69
2023-01-07T00:27:11.526Z,90.47
2023-01-07T00:29:42.516Z,90.49
2023-01-07T00:32:13.569Z,90.70
2023-01-07T00:34:43.267Z,90.63
2023-01-07T00:37:34.019Z,90.55
2023-01-07T00:40:05.467Z,90.48
2023-01-07T00:42:53.956Z,90.55
2023-01-07T00:45:26.301Z,90.43
2023-01-07T00:47:58.039Z,90.66
2023-01-07T00:50:32.466Z,90.41
2023-01-07T00:53:03.869Z,90.26
2023-01-07T00:55:35.568Z,90.30
2023-01-07T00:58:06.958Z,90.55
2023-01-07T01:00:38.303Z,90.75
2023-01-07T01:03:07.951Z,90.85
2023-01-07T01:05:39.429Z,90.84
2023-01-07T01:08:12.151Z,90.80
2023-01-07T01:10:43.228Z,90.58
2023-01-07T01:13:18.322Z,90.41
2023-01-07T01:15:50.954Z,90.66
2023-01-07T01:18:22.044Z,91.18
2023-01-07T01:20:53.111Z,91.30
2023-01-07T01:23:24.250Z,91.14
2023-01-07T01:26:02.730Z,91.05
2023-01-07T01:28:34.159Z,91.04
2023-01-07T01:31:05.777Z,91.21
2023-01-07T01:33:37.273Z,91.14
2023-01-07T01:36:08.186Z,90.88
2023-01-07T01:38:39.352Z,90.99
2023-01-07T01:41:10.468Z,91.23
2023-01-07T01:43:43.289Z,91.45
2023-01-07T01:46:17.732Z,91.50
2023-01-07T01:48:54.696Z,91.59
2023-01-07T01:51:29.114Z,91.47
2023-01-07T01:54:00.118Z,91.51
2023-01-07T01:56:34.912Z,91.27
2023-01-07T01:59:09.190Z,91.10
2023-01-07T02:01:40.534Z,90.94
2023-01-07T02:04:15.014Z,90.97
2023-01-07T02:07:01.416Z,91.19
2023-01-07T02:09:33.026Z,91.14
2023-01-07T02:12:15.897Z,91.03
2023-01-07T02:15:08.038Z,90.92
2023-01-07T02:17:54.658Z,90.68
2023-01-07T02:20:55.675Z,90.96
2023-01-07T02:24:25.609Z,90.93
2023-01-07T02:27:15.060Z,91.03
2023-01-07T02:30:13.299Z,90.97
2023-01-07T02:33:07.087Z,90.95
2023-01-07T02:35:54.547Z,90.89
2023-01-07T02:38:33.608Z,91.08
2023-01-07T02:41:15.282Z,91.05
2023-01-07T02:43:54.320Z,91.16
2023-01-07T02:46:32.018Z,91.13
2023-01-07T02:49:05.779Z,90.92
2023-01-07T02:51:41.567Z,90.81
2023-01-07T02:54:16.448Z,90.79
2023-01-07T02:56:59.248Z,90.80
2023-01-07T02:59:53.083Z,90.88
2023-01-07T03:02:34.015Z,90.85
2023-01-07T03:05:26.794Z,90.74
2023-01-07T03:08:11.411Z,90.54
2023-01-07T03:10:48.819Z,90.50
2023-01-07T03:13:24.316Z,90.35
2023-01-07T03:16:02.709Z,90.16
2023-01-07T03:18:36.928Z,90.21
2023-01-07T03:21:11.299Z,90.32
2023-01-07T03:23:49.104Z,90.32
2023-01-07T03:26:24.293Z,90.22
2023-01-07T03:28:57.299Z,90.02
2023-01-07T03:31:29.788Z,89.86
2023-01-07T03:34:06.715Z,90.05
2023-01-07T03:36:41.694Z,90.17
2023-01-07T03:39:13.673Z,90.13
2023-01-07T03:42:02.500Z,90.13
2023-01-07T03:44:33.624Z,90.30
2023-01-07T03:47:05.801Z,90.56
2023-01-07T03:49:38.701Z,90.59
2023-01-07T03:52:09.952Z,90.51
2023-01-07T03:54:40.880Z,90.46
2023-01-07T03:57:12.034Z,90.37
2023-01-07T03:59:42.853Z,90.33
2023-01-07T04:02:14.113Z,90.59
2023-01-07T04:04:43.608Z,90.78
2023-01-07T04:07:14.810Z,90.81
2023-01-07T04:09:47.310Z,90.63
2023-01-07T04:12:18.613Z,90.66
2023-01-07T04:14:49.635Z,90.60
2023-01-07T04:17:20.594Z,90.55
2023-01-07T04:19:51.661Z,90.66
2023-01-07T04:22:22.866Z,90.58
2023-01-07T04:24:56.319Z,90.52
2023-01-07T04:27:27.637Z,90.49
2023-01-07T04:29:57.157Z,90.47
2023-01-07T04:32:28.078Z,90.61
2023-01-07T04:34:59.066Z,90.47
2023-01-07T04:37:29.928Z,90.30
2023-01-07T04:40:01.028Z,90.33
2023-01-07T04:42:30.664Z,90.31
2023-01-07T04:45:01.617Z,90.47
2023-01-07T04:47:32.693Z,90.53
2023-01-07T04:50:03.808Z,90.44
2023-01-07T04:52:35.181Z,90.39
2023-01-07T04:55:04.990Z,90.34
2023-01-07T04:57:36.236Z,90.37
2023-01-07T05:00:10.058Z,90.51
2023-01-07T05:02:41.158Z,90.66
2023-01-07T05:05:13.057Z,90.68
2023-01-07T05:07:44.097Z,90.71
2023-01-07T05:10:15.248Z,90.65
2023-01-07T05:12:44.986Z,90.53
2023-01-07T05:15:16.407Z,90.65
2023-01-07T05:17:47.667Z,90.63
2023-01-07T05:20:19.095Z,90.81
2023-01-07T05:22:50.249Z,90.81
2023-01-07T05:25:21.640Z,90.88
2023-01-07T05:27:52.916Z,90.87
2023-01-07T05:30:24.216Z,90.88
2023-01-07T05:32:55.049Z,90.72
2023-01-07T05:35:26.170Z,90.80
2023-01-07T05:37:57.284Z,90.77
2023-01-07T05:40:26.812Z,90.66
2023-01-07T05:42:58.051Z,90.71
2023-01-07T05:45:29.001Z,90.61
2023-01-07T05:48:00.103Z,90.63
2023-01-07T05:50:31.415Z,90.70
2023-01-07T05:53:02.442Z,90.72
2023-01-07T05:55:32.195Z,90.67
2023-01-07T05:58:03.107Z,90.63
2023-01-07T06:00:34.185Z,90.62
2023-01-07T06:03:03.906Z,90.51
2023-01-07T06:05:35.567Z,90.57
2023-01-07T06:08:07.213Z,90.62
2023-01-07T06:10:38.166Z,90.60
2023-01-07T06:13:07.802Z,90.53
2023-01-07T06:15:39.023Z,90.53
2023-01-07T06:18:10.148Z,90.58
2023-01-07T06:20:41.184Z,90.63
2023-01-07T06:23:10.990Z,90.60
2023-01-07T06:25:42.019Z,90.55
2023-01-07T06:28:12.951Z,90.45
2023-01-07T06:30:45.622Z,90.52
2023-01-07T06:33:17.443Z,90.46
2023-01-07T06:35:48.792Z,90.52
2023-01-07T06:38:19.805Z,90.59
2023-01-07T06:40:50.790Z,90.57
2023-01-07T06:43:20.392Z,90.55
2023-01-07T06:45:51.912Z,90.44
2023-01-07T06:48:21.398Z,90.46
2023-01-07T06:50:52.441Z,90.50
2023-01-07T06:53:23.699Z,90.52
2023-01-07T06:55:54.748Z,90.50
2023-01-07T06:58:26.324Z,90.52
2023-01-07T07:00:57.460Z,90.52
2023-01-07T07:03:28.852Z,90.51
2023-01-07T07:05:59.853Z,90.52
2023-01-07T07:08:30.863Z,90.53
2023-01-07T07:11:01.863Z,90.50
2023-01-07T07:13:32.866Z,90.46
2023-01-07T07:16:04.496Z,90.31
2023-01-07T07:18:35.613Z,90.38
2023-01-07T07:21:05.456Z,90.38
2023-01-07T07:23:36.660Z,90.43
2023-01-07T07:26:08.100Z,90.46
2023-01-07T07:28:39.414Z,90.47
2023-01-07T07:31:10.865Z,90.38
2023-01-07T07:33:42.025Z,90.44
2023-01-07T07:36:13.520Z,90.47
2023-01-07T07:38:44.589Z,90.39
2023-01-07T07:41:15.610Z,90.41
2023-01-07T07:43:46.595Z,90.47
2023-01-07T07:46:17.493Z,90.52
2023-01-07T07:48:51.128Z,90.57
2023-01-07T07:51:22.507Z,90.52
2023-01-07T07:53:53.653Z,90.41
2023-01-07T07:56:24.622Z,90.37
2023-01-07T07:58:55.646Z,90.39
2023-01-07T08:01:26.720Z,90.34
2023-01-07T08:03:58.080Z,90.52
2023-01-07T08:06:27.524Z,90.48
2023-01-07T08:08:58.497Z,90.62
2023-01-07T08:11:29.413Z,90.72
2023-01-07T08:13:59.574Z,90.87
2023-01-07T08:16:30.855Z,91.00
2023-01-07T08:19:00.265Z,91.01
2023-01-07T08:21:31.404Z,90.99
2023-01-07T08:24:02.585Z,91.05
2023-01-07T08:26:33.669Z,90.94
2023-01-07T08:29:04.919Z,91.12
2023-01-07T08:31:36.501Z,90.92
2023-01-07T08:34:07.532Z,90.79
2023-01-07T08:36:37.034Z,90.87
2023-01-07T08:39:08.182Z,90.75
2023-01-07T08:41:37.562Z,90.73
2023-01-07T08:44:08.969Z,90.72
2023-01-07T08:46:41.867Z,90.66
2023-01-07T08:49:13.740Z,90.71
2023-01-07T08:51:47.304Z,90.75
2023-01-07T08:54:18.322Z,90.79
2023-01-07T08:56:47.904Z,90.76
2023-01-07T08:59:19.127Z,90.71
2023-01-07T09:01:50.535Z,90.87
2023-01-07T09:04:21.567Z,90.85
2023-01-07T09:06:53.947Z,90.78
2023-01-07T09:09:23.460Z,90.82
2023-01-07T09:11:54.469Z,90.91
2023-01-07T09:14:23.923Z,91.02
2023-01-07T09:16:54.863Z,91.01
2023-01-07T09:19:25.960Z,90.91
2023-01-07T09:21:57.335Z,90.80
2023-01-07T09:24:28.433Z,90.64
2023-01-07T09:26:59.502Z,90.77
2023-01-07T09:29:30.820Z,90.72
2023-01-07T09:32:02.400Z,90.76
2023-01-07T09:34:33.842Z,90.80
2023-01-07T09:37:05.717Z,90.81
2023-01-07T09:39:36.647Z,90.94
2023-01-07T09:42:10.254Z,90.87
2023-01-07T09:44:54.045Z,90.85
2023-01-07T09:47:28.028Z,90.92
2023-01-07T09:50:02.991Z,90.90
2023-01-07T09:52:37.921Z,90.74
2023-01-07T09:55:19.405Z,90.53
2023-01-07T09:57:50.872Z,90.28
2023-01-07T10:00:25.483Z,90.20
2023-01-07T10:03:16.697Z,89.82
2023-01-07T10:05:57.913Z,89.35
2023-01-07T10:08:38.069Z,89.14
2023-01-07T10:11:18.675Z,89.17
2023-01-07T10:14:03.833Z,89.07
2023-01-07T10:16:44.763Z,88.64
2023-01-07T10:19:25.572Z,88.40
2023-01-07T10:22:01.519Z,88.23
2023-01-07T10:24:38.372Z,88.43
2023-01-07T10:27:14.691Z,88.07
2023-01-07T10:29:50.917Z,87.84
2023-01-07T10:32:23.926Z,87.63
2023-01-07T10:34:58.337Z,87.66
2023-01-07T10:37:33.788Z,87.64
2023-01-07T10:40:23.329Z,87.56
2023-01-07T10:43:02.269Z,87.62
2023-01-07T10:45:45.056Z,87.87
2023-01-07T10:48:44.395Z,87.89
2023-01-07T10:51:36.529Z,87.78
2023-01-07T10:54:26.774Z,87.72
2023-01-07T10:57:04.210Z,87.60
2023-01-07T10:59:35.590Z,87.57
2023-01-07T11:02:16.244Z,87.66
2023-01-07T11:04:48.001Z,87.80
2023-01-07T11:07:29.169Z,87.90
2023-01-07T11:10:04.628Z,87.89
2023-01-07T11:12:41.533Z,88.24
2023-01-07T11:15:20.436Z,88.24
2023-01-07T11:17:55.187Z,88.41
2023-01-07T11:20:50.306Z,88.34
2023-01-07T11:23:29.970Z,88.41
2023-01-07T11:26:13.082Z,88.36
2023-01-07T11:28:55.497Z,88.30
2023-01-07T11:31:47.069Z,88.31
2023-01-07T11:34:28.066Z,88.25
2023-01-07T11:36:59.299Z,87.72
2023-01-07T11:39:32.920Z,87.16
2023-01-07T11:42:29.602Z,86.35
2023-01-07T11:45:16.041Z,86.36
2023-01-07T11:47:59.379Z,86.29
2023-01-07T11:50:37.161Z,85.92
2023-01-07T11:53:12.334Z,85.93
2023-01-07T11:55:57.587Z,85.83
2023-01-07T11:58:31.345Z,85.66
2023-01-07T12:01:23.364Z,85.80
2023-01-07T12:04:22.700Z,85.50
2023-01-07T12:06:55.980Z,85.10
2023-01-07T12:09:36.804Z,85.64
2023-01-07T12:12:34.758Z,85.74
2023-01-07T12:15:18.373Z,85.50
2023-01-07T12:17:51.829Z,84.83
2023-01-07T12:20:59.690Z,84.18
2023-01-07T12:23:40.713Z,84.25
2023-01-07T12:26:19.489Z,84.06
2023-01-07T12:29:08.807Z,84.60
2023-01-07T12:31:53.792Z,84.90
2023-01-07T12:34:36.975Z,85.15
2023-01-07T12:37:14.940Z,85.36
2023-01-07T12:39:47.755Z,85.41
2023-01-07T12:45:02.424Z,85.61
2023-01-07T12:47:38.399Z,85.63
2023-01-07T12:50:17.731Z,85.69
2023-01-07T12:52:52.817Z,85.69
2023-01-07T12:55:28.127Z,85.52
2023-01-07T12:58:17.185Z,85.54
2023-01-07T13:00:56.151Z,85.76
2023-01-07T13:03:39.733Z,85.66
2023-01-07T13:06:16.408Z,85.80
2023-01-07T13:08:54.506Z,85.72
2023-01-07T13:11:44.900Z,86.06
2023-01-07T13:14:23.851Z,86.10
2023-01-07T13:17:00.851Z,85.87
2023-01-07T13:19:32.191Z,85.92
2023-01-07T13:22:03.936Z,86.06
2023-01-07T13:24:56.097Z,86.00
2023-01-07T13:27:35.876Z,85.96
2023-01-07T13:30:20.075Z,85.86
2023-01-07T13:33:04.184Z,85.89
2023-01-07T13:35:51.200Z,85.83
2023-01-07T13:38:42.792Z,85.78
2023-01-07T13:41:34.374Z,85.68
2023-01-07T13:44:34.713Z,85.69
2023-01-07T13:47:06.783Z,85.95
2023-01-07T13:49:38.192Z,85.96
2023-01-07T13:52:19.127Z,85.92
2023-01-07T13:55:04.246Z,86.09
2023-01-07T13:57:46.044Z,86.13
2023-01-07T14:01:01.728Z,86.29
2023-01-07T14:03:49.639Z,86.51
2023-01-07T14:06:51.477Z,86.67
2023-01-07T14:09:34.758Z,86.85
2023-01-07T14:12:32.722Z,87.21
2023-01-07T14:15:38.215Z,87.17
2023-01-07T14:18:32.103Z,86.98
2023-01-07T14:21:18.375Z,86.84
2023-01-07T14:24:01.918Z,86.74
2023-01-07T14:26:41.798Z,86.80
2023-01-07T14:29:39.976Z,86.95
2023-01-07T14:32:42.754Z,87.15
2023-01-07T14:35:29.635Z,87.39
2023-01-07T14:38:00.687Z,87.52
2023-01-07T14:41:10.340Z,87.59
2023-01-07T14:44:06.168Z,87.80
2023-01-07T14:46:50.730Z,87.89
2023-01-07T14:49:51.100Z,87.71
2023-01-07T14:52:48.104Z,87.72
2023-01-07T14:55:50.085Z,87.83
2023-01-07T14:58:37.037Z,87.87
2023-01-07T15:01:35.435Z,88.07
2023-01-07T15:04:35.218Z,88.36
2023-01-07T15:07:14.671Z,88.58
2023-01-07T15:10:09.562Z,88.66
2023-01-07T15:13:08.343Z,88.75
2023-01-07T15:15:59.542Z,88.71
2023-01-07T15:18:31.964Z,88.70
2023-01-07T15:21:19.307Z,88.49
2023-01-07T15:24:00.661Z,88.62
2023-01-07T15:26:42.549Z,88.68
2023-01-07T15:29:21.003Z,88.79
2023-01-07T15:32:01.886Z,88.82
2023-01-07T15:34:34.710Z,88.77
2023-01-07T15:37:09.837Z,88.76
2023-01-07T15:39:46.990Z,88.73
2023-01-07T15:42:21.489Z,88.70
2023-01-07T15:44:55.323Z,88.80
2023-01-07T15:47:41.361Z,88.78
2023-01-07T15:50:33.864Z,88.74
2023-01-07T15:53:18.183Z,88.80
2023-01-07T15:55:57.215Z,88.85
2023-01-07T15:58:36.373Z,88.87
2023-01-07T16:01:09.155Z,88.84
2023-01-07T16:03:44.653Z,88.98
2023-01-07T16:06:39.278Z,88.77
2023-01-07T16:09:20.531Z,88.83
2023-01-07T16:11:51.678Z,88.69
2023-01-07T16:14:24.599Z,88.62
2023-01-07T16:17:18.584Z,88.62
2023-01-07T16:19:49.798Z,88.49
2023-01-07T16:22:26.149Z,88.37
2023-01-07T16:24:58.509Z,88.31
2023-01-07T16:27:31.527Z,88.28
2023-01-07T16:30:03.501Z,88.22
2023-01-07T16:32:35.542Z,88.10
2023-01-07T16:35:12.370Z,87.96
2023-01-07T16:37:44.087Z,87.93
2023-01-07T16:40:23.387Z,87.75
2023-01-07T16:42:55.008Z,87.76
2023-01-07T16:45:29.154Z,87.76
2023-01-07T16:48:19.989Z,87.69
2023-01-07T16:50:53.163Z,87.51
2023-01-07T16:53:29.967Z,87.40
2023-01-07T16:56:19.264Z,87.44
2023-01-07T16:58:55.531Z,87.39
2023-01-07T17:01:35.837Z,87.66
2023-01-07T17:04:17.218Z,87.88
2023-01-07T17:06:49.127Z,88.04
2023-01-07T17:09:25.982Z,88.05
2023-01-07T17:11:57.751Z,87.98
2023-01-07T17:14:54.538Z,87.74
2023-01-07T17:17:37.240Z,87.87
2023-01-07T17:20:22.558Z,88.12
2023-01-07T17:22:53.764Z,88.23
2023-01-07T17:25:28.395Z,88.29
2023-01-07T17:28:01.662Z,88.23
2023-01-07T17:30:35.661Z,88.24
2023-01-07T17:33:16.472Z,88.27
2023-01-07T17:35:48.850Z,88.22
2023-01-07T17:38:20.333Z,88.18
2023-01-07T17:40:52.135Z,88.01
2023-01-07T17:43:34.788Z,87.88
2023-01-07T17:46:08.738Z,87.97
2023-01-07T17:48:40.570Z,87.88
2023-01-07T17:51:14.114Z,87.82
2023-01-07T17:53:48.188Z,87.75
2023-01-07T17:56:19.426Z,87.84
2023-01-07T17:58:51.176Z,87.79
2023-01-07T18:01:24.243Z,87.76
2023-01-07T18:03:55.705Z,87.75
2023-01-07T18:06:28.303Z,87.68
2023-01-07T18:08:59.395Z,87.80
2023-01-07T18:11:49.357Z,87.72
2023-01-07T18:14:20.652Z,87.53
2023-01-07T18:16:53.103Z,87.52
2023-01-07T18:19:24.285Z,87.52
2023-01-07T18:21:53.799Z,87.51
2023-01-07T18:24:24.960Z,87.61
2023-01-07T18:26:56.440Z,87.47
2023-01-07T18:29:27.679Z,87.39
2023-01-07T18:31:57.276Z,87.39
2023-01-07T18:34:29.268Z,87.34
2023-01-07T18:37:00.373Z,87.48
2023-01-07T18:39:30.452Z,87.53
2023-01-07T18:42:01.482Z,87.56
2023-01-07T18:44:31.178Z,87.54
2023-01-07T18:47:02.424Z,87.52
2023-01-07T18:49:35.069Z,87.43
2023-01-07T18:52:06.175Z,87.49
2023-01-07T18:54:38.185Z,87.39
2023-01-07T18:57:10.074Z,87.46
2023-01-07T18:59:41.073Z,87.47
2023-01-07T19:02:17.395Z,87.38
2023-01-07T19:04:49.555Z,87.40
2023-01-07T19:07:21.842Z,87.41
2023-01-07T19:09:53.245Z,87.34
2023-01-07T19:12:24.380Z,87.37
2023-01-07T19:14:55.621Z,87.35
2023-01-07T19:17:26.719Z,87.31
2023-01-07T19:19:57.949Z,87.31
2023-01-07T19:22:29.066Z,87.35
2023-01-07T19:25:00.787Z,87.31
2023-01-07T19:27:32.082Z,87.41
2023-01-07T19:30:03.063Z,87.51
2023-01-07T19:32:34.319Z,87.42
2023-01-07T19:35:05.960Z,87.65
2023-01-07T19:37:39.279Z,87.58
2023-01-07T19:40:12.866Z,87.55
2023-01-07T19:42:43.967Z,87.54
2023-01-07T19:45:15.341Z,87.59
2023-01-07T19:47:47.693Z,87.54
2023-01-07T19:50:19.394Z,87.48
2023-01-07T19:52:50.572Z,87.39
2023-01-07T19:55:22.310Z,87.45
2023-01-07T19:57:53.480Z,87.17
2023-01-07T20:00:24.632Z,87.25
2023-01-07T20:02:54.265Z,87.56
2023-01-07T20:05:27.055Z,88.03
2023-01-07T20:07:59.538Z,88.00
2023-01-07T20:10:30.435Z,87.91
2023-01-07T20:13:01.633Z,88.16
2023-01-07T20:15:33.094Z,88.42
2023-01-07T20:18:04.815Z,88.54
2023-01-07T20:20:35.955Z,88.71
2023-01-07T20:23:07.053Z,88.73
2023-01-07T20:25:42.838Z,88.74
2023-01-07T20:28:14.300Z,88.72
2023-01-07T20:30:43.910Z,88.56
2023-01-07T20:33:15.072Z,88.81
2023-01-07T20:35:46.824Z,88.78
2023-01-07T20:38:17.813Z,88.70
2023-01-07T20:40:49.419Z,88.79
2023-01-07T20:43:20.716Z,88.72
2023-01-07T20:45:51.963Z,88.86
2023-01-07T20:48:23.301Z,88.87
2023-01-07T20:50:52.811Z,88.77
2023-01-07T20:53:24.647Z,88.84
2023-01-07T20:56:00.277Z,88.85
2023-01-07T20:58:33.915Z,88.98
2023-01-07T21:01:07.895Z,88.88
2023-01-07T21:03:40.697Z,88.90
2023-01-07T21:06:14.046Z,88.74
2023-01-07T21:08:46.089Z,88.66
2023-01-07T21:11:18.901Z,88.45
2023-01-07T21:13:51.085Z,88.53
2023-01-07T21:16:22.242Z,88.32
2023-01-07T21:18:53.452Z,88.40
2023-01-07T21:21:25.472Z,88.51
2023-01-07T21:23:57.209Z,88.59
2023-01-07T21:26:28.249Z,88.51
2023-01-07T21:28:59.495Z,88.47
2023-01-07T21:31:29.060Z,88.47
2023-01-07T21:34:00.324Z,88.61
2023-01-07T21:36:31.714Z,88.84
2023-01-07T21:39:02.827Z,88.82
2023-01-07T21:41:34.066Z,88.76
2023-01-07T21:44:05.087Z,88.76
2023-01-07T21:46:36.138Z,88.83
2023-01-07T21:49:08.327Z,88.64
2023-01-07T21:51:40.012Z,88.48
2023-01-07T21:54:10.232Z,88.37
2023-01-07T21:56:41.720Z,88.32
2023-01-07T21:59:13.030Z,88.54
2023-01-07T22:01:43.943Z,88.67
2023-01-07T22:04:13.814Z,89.02
2023-01-07T22:06:45.343Z,89.21
2023-01-07T22:09:15.828Z,89.18
2023-01-07T22:11:47.213Z,89.32
2023-01-07T22:14:20.046Z,89.33
2023-01-07T22:16:51.416Z,89.40
2023-01-07T22:19:25.942Z,89.27
2023-01-07T22:21:57.161Z,89.37
2023-01-07T22:24:28.620Z,89.32
2023-01-07T22:26:59.664Z,89.10
2023-01-07T22:29:32.449Z,89.08
2023-01-07T22:32:03.913Z,89.13
2023-01-07T22:34:33.587Z,89.03
2023-01-07T22:37:08.514Z,89.20
2023-01-07T22:39:41.579Z,89.20
2023-01-07T22:42:16.417Z,89.09
2023-01-07T22:44:52.010Z,88.98
2023-01-07T22:47:26.976Z,89.00
2023-01-07T22:49:59.698Z,89.08
2023-01-07T22:52:30.997Z,89.03
2023-01-07T22:55:02.653Z,88.95
2023-01-07T22:57:34.619Z,89.08
2023-01-07T23:00:09.832Z,89.10
2023-01-07T23:02:46.524Z,89.18
2023-01-07T23:05:17.960Z,89.34
2023-01-07T23:07:49.489Z,89.42
2023-01-07T23:10:20.832Z,89.47
2023-01-07T23:12:52.166Z,89.46
2023-01-07T23:15:21.906Z,89.40
2023-01-07T23:17:52.957Z,89.30
2023-01-07T23:20:24.013Z,89.32
2023-01-07T23:22:55.247Z,89.20
2023-01-07T23:25:26.433Z,89.14
2023-01-07T23:27:57.463Z,89.20
2023-01-07T23:30:28.479Z,89.17
2023-01-07T23:32:59.423Z,89.22
2023-01-07T23:35:30.679Z,89.08
2023-01-07T23:38:02.015Z,89.10
2023-01-07T23:40:33.030Z,89.06
2023-01-07T23:43:04.465Z,88.86
2023-01-07T23:45:36.116Z,88.96
2023-01-07T23:48:07.895Z,88.82
2023-01-07T23:50:38.993Z,88.91
2023-01-07T23:53:10.042Z,89.06
2023-01-07T23:55:40.980Z,89.15
2023-01-07T23:58:11.907Z,89.14
